sensor_id;sensor_type;location;lat;lon;timestamp;temperature;humidity
41928;DHT22;27616;51.420;6.788;2024-03-02T00:00:08;8.50;99.90
41928;DHT22;27616;51.420;6.788;2024-03-02T00:02:44;8.50;99.90
41928;DHT22;27616;51.420;6.788;2024-03-02T00:05:15;8.50;99.90
41928;DHT22;27616;51.420;6.788;2024-03-02T00:07:42;8.50;99.90
41928;DHT22;27616;51.420;6.788;2024-03-02T00:10:09;8.50;99.90
41928;DHT22;27616;51.420;6.788;2024-03-02T00:12:39;8.50;99.90
41928;DHT22;27616;51.420;6.788;2024-03-02T00:15:42;8.50;99.90
41928;DHT22;27616;51.420;6.788;2024-03-02T00:18:11;8.50;99.90
41928;DHT22;27616;51.420;6.788;2024-03-02T00:20:38;8.50;99.90
41928;DHT22;27616;51.420;6.788;2024-03-02T00:23:05;8.50;99.90
41928;DHT22;27616;51.420;6.788;2024-03-02T00:25:38;8.50;99.90
41928;DHT22;27616;51.420;6.788;2024-03-02T00:28:05;8.50;99.90
41928;DHT22;27616;51.420;6.788;2024-03-02T00:33:16;8.70;99.90
41928;DHT22;27616;51.420;6.788;2024-03-02T00:35:44;8.70;99.90
41928;DHT22;27616;51.420;6.788;2024-03-02T00:38:10;8.70;99.90
41928;DHT22;27616;51.420;6.788;2024-03-02T00:40:35;8.80;99.90
41928;DHT22;27616;51.420;6.788;2024-03-02T00:43:02;8.80;99.90
41928;DHT22;27616;51.420;6.788;2024-03-02T00:45:28;8.80;99.90
41928;DHT22;27616;51.420;6.788;2024-03-02T00:47:54;8.80;99.90
41928;DHT22;27616;51.420;6.788;2024-03-02T00:50:20;8.90;99.90
41928;DHT22;27616;51.420;6.788;2024-03-02T00:52:47;8.90;99.90
41928;DHT22;27616;51.420;6.788;2024-03-02T00:55:15;8.90;99.90
41928;DHT22;27616;51.420;6.788;2024-03-02T00:57:41;9.00;99.90
41928;DHT22;27616;51.420;6.788;2024-03-02T01:00:07;9.00;99.90
41928;DHT22;27616;51.420;6.788;2024-03-02T01:02:35;9.00;99.90
41928;DHT22;27616;51.420;6.788;2024-03-02T01:05:01;9.00;99.90
41928;DHT22;27616;51.420;6.788;2024-03-02T01:07:27;9.00;99.90
41928;DHT22;27616;51.420;6.788;2024-03-02T01:09:52;9.00;99.90
41928;DHT22;27616;51.420;6.788;2024-03-02T01:12:18;9.00;99.90
41928;DHT22;27616;51.420;6.788;2024-03-02T01:14:43;9.10;99.90
41928;DHT22;27616;51.420;6.788;2024-03-02T01:17:09;9.00;99.90
41928;DHT22;27616;51.420;6.788;2024-03-02T01:19:35;9.00;99.90
41928;DHT22;27616;51.420;6.788;2024-03-02T01:22:00;9.10;99.90
41928;DHT22;27616;51.420;6.788;2024-03-02T01:24:26;9.10;99.90
41928;DHT22;27616;51.420;6.788;2024-03-02T01:26:52;9.10;99.90
41928;DHT22;27616;51.420;6.788;2024-03-02T01:29:17;9.00;99.90
41928;DHT22;27616;51.420;6.788;2024-03-02T01:31:43;9.00;99.90
41928;DHT22;27616;51.420;6.788;2024-03-02T01:34:09;9.00;99.90
41928;DHT22;27616;51.420;6.788;2024-03-02T01:36:34;9.00;99.90
41928;DHT22;27616;51.420;6.788;2024-03-02T01:39:00;8.90;99.90
41928;DHT22;27616;51.420;6.788;2024-03-02T01:41:26;8.90;99.90
41928;DHT22;27616;51.420;6.788;2024-03-02T01:43:52;8.90;99.90
41928;DHT22;27616;51.420;6.788;2024-03-02T01:46:17;8.80;99.90
41928;DHT22;27616;51.420;6.788;2024-03-02T01:48:43;8.80;99.90
41928;DHT22;27616;51.420;6.788;2024-03-02T01:51:08;8.80;99.90
41928;DHT22;27616;51.420;6.788;2024-03-02T01:53:35;8.80;99.90
41928;DHT22;27616;51.420;6.788;2024-03-02T01:56:01;8.80;99.90
41928;DHT22;27616;51.420;6.788;2024-03-02T01:58:27;8.80;99.90
41928;DHT22;27616;51.420;6.788;2024-03-02T02:00:53;8.80;99.90
41928;DHT22;27616;51.420;6.788;2024-03-02T02:03:19;8.80;99.90
41928;DHT22;27616;51.420;6.788;2024-03-02T02:05:45;8.90;99.90
41928;DHT22;27616;51.420;6.788;2024-03-02T02:08:13;8.90;99.90
41928;DHT22;27616;51.420;6.788;2024-03-02T02:10:38;8.90;99.90
41928;DHT22;27616;51.420;6.788;2024-03-02T02:13:04;8.90;99.90
41928;DHT22;27616;51.420;6.788;2024-03-02T02:15:30;9.00;99.90
41928;DHT22;27616;51.420;6.788;2024-03-02T02:17:57;9.00;99.90
41928;DHT22;27616;51.420;6.788;2024-03-02T02:20:23;9.00;99.90
41928;DHT22;27616;51.420;6.788;2024-03-02T02:23:03;9.10;99.90
41928;DHT22;27616;51.420;6.788;2024-03-02T02:25:29;9.00;99.90
41928;DHT22;27616;51.420;6.788;2024-03-02T02:27:55;9.10;99.90
41928;DHT22;27616;51.420;6.788;2024-03-02T02:30:26;9.10;99.90
41928;DHT22;27616;51.420;6.788;2024-03-02T02:32:52;9.10;99.90
41928;DHT22;27616;51.420;6.788;2024-03-02T02:35:18;9.20;99.90
41928;DHT22;27616;51.420;6.788;2024-03-02T02:37:45;9.20;99.90
41928;DHT22;27616;51.420;6.788;2024-03-02T02:40:12;9.20;99.90
41928;DHT22;27616;51.420;6.788;2024-03-02T02:42:38;9.20;99.90
41928;DHT22;27616;51.420;6.788;2024-03-02T02:45:05;9.20;99.90
41928;DHT22;27616;51.420;6.788;2024-03-02T02:47:31;9.20;99.90
41928;DHT22;27616;51.420;6.788;2024-03-02T02:49:56;9.30;99.90
41928;DHT22;27616;51.420;6.788;2024-03-02T02:52:22;9.30;99.90
41928;DHT22;27616;51.420;6.788;2024-03-02T02:54:47;9.30;99.90
41928;DHT22;27616;51.420;6.788;2024-03-02T02:57:13;9.30;99.90
41928;DHT22;27616;51.420;6.788;2024-03-02T02:59:39;9.30;99.90
41928;DHT22;27616;51.420;6.788;2024-03-02T03:02:04;9.30;99.90
41928;DHT22;27616;51.420;6.788;2024-03-02T03:04:30;9.30;99.90
41928;DHT22;27616;51.420;6.788;2024-03-02T03:06:56;9.30;99.90
41928;DHT22;27616;51.420;6.788;2024-03-02T03:09:21;9.30;99.90
41928;DHT22;27616;51.420;6.788;2024-03-02T03:11:47;9.30;99.90
41928;DHT22;27616;51.420;6.788;2024-03-02T03:14:12;9.30;99.90
41928;DHT22;27616;51.420;6.788;2024-03-02T03:16:38;9.30;99.90
41928;DHT22;27616;51.420;6.788;2024-03-02T03:19:03;9.30;99.90
41928;DHT22;27616;51.420;6.788;2024-03-02T03:21:29;9.30;99.90
41928;DHT22;27616;51.420;6.788;2024-03-02T03:23:55;9.30;99.90
41928;DHT22;27616;51.420;6.788;2024-03-02T03:26:20;9.30;99.90
41928;DHT22;27616;51.420;6.788;2024-03-02T03:28:46;9.30;99.90
41928;DHT22;27616;51.420;6.788;2024-03-02T03:31:12;9.30;99.90
41928;DHT22;27616;51.420;6.788;2024-03-02T03:33:37;9.20;99.90
41928;DHT22;27616;51.420;6.788;2024-03-02T03:36:03;9.20;99.90
41928;DHT22;27616;51.420;6.788;2024-03-02T03:38:29;9.20;99.90
41928;DHT22;27616;51.420;6.788;2024-03-02T03:40:55;9.10;99.90
41928;DHT22;27616;51.420;6.788;2024-03-02T03:43:21;9.10;99.90
41928;DHT22;27616;51.420;6.788;2024-03-02T03:45:46;9.10;99.90
41928;DHT22;27616;51.420;6.788;2024-03-02T03:48:12;9.10;99.90
41928;DHT22;27616;51.420;6.788;2024-03-02T03:50:38;9.10;99.90
41928;DHT22;27616;51.420;6.788;2024-03-02T03:53:03;9.00;99.90
41928;DHT22;27616;51.420;6.788;2024-03-02T03:55:29;9.00;99.90
41928;DHT22;27616;51.420;6.788;2024-03-02T03:57:54;9.00;99.90
41928;DHT22;27616;51.420;6.788;2024-03-02T04:00:20;8.90;99.90
41928;DHT22;27616;51.420;6.788;2024-03-02T04:02:46;8.90;99.90
41928;DHT22;27616;51.420;6.788;2024-03-02T04:05:11;8.80;99.90
41928;DHT22;27616;51.420;6.788;2024-03-02T04:07:37;8.70;99.90
41928;DHT22;27616;51.420;6.788;2024-03-02T04:10:11;8.60;99.90
41928;DHT22;27616;51.420;6.788;2024-03-02T04:12:38;8.50;99.90
41928;DHT22;27616;51.420;6.788;2024-03-02T04:15:05;8.40;99.90
41928;DHT22;27616;51.420;6.788;2024-03-02T04:17:32;8.50;99.90
41928;DHT22;27616;51.420;6.788;2024-03-02T04:19:59;8.50;99.90
41928;DHT22;27616;51.420;6.788;2024-03-02T04:22:25;8.40;99.90
41928;DHT22;27616;51.420;6.788;2024-03-02T04:24:51;8.30;99.90
41928;DHT22;27616;51.420;6.788;2024-03-02T04:27:17;8.30;99.90
41928;DHT22;27616;51.420;6.788;2024-03-02T04:29:42;8.30;99.90
41928;DHT22;27616;51.420;6.788;2024-03-02T04:32:08;8.30;99.90
41928;DHT22;27616;51.420;6.788;2024-03-02T04:34:33;8.20;99.90
41928;DHT22;27616;51.420;6.788;2024-03-02T04:36:59;8.20;99.90
41928;DHT22;27616;51.420;6.788;2024-03-02T04:39:25;8.10;99.90
41928;DHT22;27616;51.420;6.788;2024-03-02T04:41:50;8.10;99.90
41928;DHT22;27616;51.420;6.788;2024-03-02T04:44:16;8.20;99.90
41928;DHT22;27616;51.420;6.788;2024-03-02T04:46:41;8.20;99.90
41928;DHT22;27616;51.420;6.788;2024-03-02T04:49:07;8.10;99.90
41928;DHT22;27616;51.420;6.788;2024-03-02T04:51:34;8.00;99.90
41928;DHT22;27616;51.420;6.788;2024-03-02T04:53:59;8.00;99.90
41928;DHT22;27616;51.420;6.788;2024-03-02T04:56:25;8.00;99.90
41928;DHT22;27616;51.420;6.788;2024-03-02T04:58:57;8.10;99.90
41928;DHT22;27616;51.420;6.788;2024-03-02T05:01:22;8.10;99.90
41928;DHT22;27616;51.420;6.788;2024-03-02T05:03:48;8.00;99.90
41928;DHT22;27616;51.420;6.788;2024-03-02T05:06:14;8.00;99.90
41928;DHT22;27616;51.420;6.788;2024-03-02T05:08:40;7.90;99.90
41928;DHT22;27616;51.420;6.788;2024-03-02T05:11:05;7.80;99.90
41928;DHT22;27616;51.420;6.788;2024-03-02T05:13:49;7.80;99.90
41928;DHT22;27616;51.420;6.788;2024-03-02T05:16:15;7.80;99.90
41928;DHT22;27616;51.420;6.788;2024-03-02T05:18:40;7.70;99.90
41928;DHT22;27616;51.420;6.788;2024-03-02T05:21:06;7.60;99.90
41928;DHT22;27616;51.420;6.788;2024-03-02T05:23:32;7.60;99.90
41928;DHT22;27616;51.420;6.788;2024-03-02T05:25:57;7.70;99.90
41928;DHT22;27616;51.420;6.788;2024-03-02T05:28:23;7.70;99.90
41928;DHT22;27616;51.420;6.788;2024-03-02T05:30:48;7.60;99.90
41928;DHT22;27616;51.420;6.788;2024-03-02T05:33:15;7.60;99.90
41928;DHT22;27616;51.420;6.788;2024-03-02T05:35:40;7.60;99.90
41928;DHT22;27616;51.420;6.788;2024-03-02T05:38:06;7.50;99.90
41928;DHT22;27616;51.420;6.788;2024-03-02T05:40:31;7.60;99.90
41928;DHT22;27616;51.420;6.788;2024-03-02T05:42:57;7.50;99.90
41928;DHT22;27616;51.420;6.788;2024-03-02T05:45:22;7.40;99.90
41928;DHT22;27616;51.420;6.788;2024-03-02T05:47:48;7.50;99.90
41928;DHT22;27616;51.420;6.788;2024-03-02T05:50:14;7.40;99.90
41928;DHT22;27616;51.420;6.788;2024-03-02T05:52:39;7.30;99.90
41928;DHT22;27616;51.420;6.788;2024-03-02T05:55:05;7.20;99.90
41928;DHT22;27616;51.420;6.788;2024-03-02T05:57:31;7.20;99.90
41928;DHT22;27616;51.420;6.788;2024-03-02T06:00:19;7.30;99.90
41928;DHT22;27616;51.420;6.788;2024-03-02T06:02:45;7.30;99.90
41928;DHT22;27616;51.420;6.788;2024-03-02T06:05:11;7.40;99.90
41928;DHT22;27616;51.420;6.788;2024-03-02T06:07:36;7.40;99.90
41928;DHT22;27616;51.420;6.788;2024-03-02T06:10:02;7.40;99.90
41928;DHT22;27616;51.420;6.788;2024-03-02T06:12:28;7.50;99.90
41928;DHT22;27616;51.420;6.788;2024-03-02T06:14:56;7.60;99.90
41928;DHT22;27616;51.420;6.788;2024-03-02T06:17:21;7.50;99.90
41928;DHT22;27616;51.420;6.788;2024-03-02T06:19:47;7.50;99.90
41928;DHT22;27616;51.420;6.788;2024-03-02T06:22:13;7.50;99.90
41928;DHT22;27616;51.420;6.788;2024-03-02T06:24:38;7.40;99.90
41928;DHT22;27616;51.420;6.788;2024-03-02T06:27:04;7.50;99.90
41928;DHT22;27616;51.420;6.788;2024-03-02T06:29:33;7.40;99.90
41928;DHT22;27616;51.420;6.788;2024-03-02T06:31:59;7.40;99.90
41928;DHT22;27616;51.420;6.788;2024-03-02T06:34:25;7.40;99.90
41928;DHT22;27616;51.420;6.788;2024-03-02T06:36:50;7.40;99.90
41928;DHT22;27616;51.420;6.788;2024-03-02T06:39:16;7.40;99.90
41928;DHT22;27616;51.420;6.788;2024-03-02T06:41:42;7.40;99.90
41928;DHT22;27616;51.420;6.788;2024-03-02T06:44:12;7.40;99.90
41928;DHT22;27616;51.420;6.788;2024-03-02T06:46:38;7.40;99.90
41928;DHT22;27616;51.420;6.788;2024-03-02T06:49:04;7.30;99.90
41928;DHT22;27616;51.420;6.788;2024-03-02T06:51:30;7.20;99.90
41928;DHT22;27616;51.420;6.788;2024-03-02T06:53:55;7.30;99.90
41928;DHT22;27616;51.420;6.788;2024-03-02T06:56:21;7.40;99.90
41928;DHT22;27616;51.420;6.788;2024-03-02T06:58:47;7.40;99.90
41928;DHT22;27616;51.420;6.788;2024-03-02T07:01:12;7.50;99.90
41928;DHT22;27616;51.420;6.788;2024-03-02T07:03:38;7.50;99.90
41928;DHT22;27616;51.420;6.788;2024-03-02T07:06:07;7.70;99.90
41928;DHT22;27616;51.420;6.788;2024-03-02T07:08:32;7.80;99.90
41928;DHT22;27616;51.420;6.788;2024-03-02T07:10:58;7.90;99.90
41928;DHT22;27616;51.420;6.788;2024-03-02T07:13:24;8.00;99.90
41928;DHT22;27616;51.420;6.788;2024-03-02T07:15:50;8.00;99.90
41928;DHT22;27616;51.420;6.788;2024-03-02T07:18:34;8.20;99.90
41928;DHT22;27616;51.420;6.788;2024-03-02T07:21:05;8.20;99.90
41928;DHT22;27616;51.420;6.788;2024-03-02T07:23:30;8.30;99.90
41928;DHT22;27616;51.420;6.788;2024-03-02T07:25:57;8.40;99.90
41928;DHT22;27616;51.420;6.788;2024-03-02T07:28:23;8.40;99.90
41928;DHT22;27616;51.420;6.788;2024-03-02T07:30:59;8.40;99.90
41928;DHT22;27616;51.420;6.788;2024-03-02T07:33:25;8.40;99.90
41928;DHT22;27616;51.420;6.788;2024-03-02T07:35:50;8.50;99.90
41928;DHT22;27616;51.420;6.788;2024-03-02T07:38:16;8.50;99.90
41928;DHT22;27616;51.420;6.788;2024-03-02T07:40:42;8.80;99.90
41928;DHT22;27616;51.420;6.788;2024-03-02T07:43:08;9.30;99.90
41928;DHT22;27616;51.420;6.788;2024-03-02T07:45:34;9.90;99.90
41928;DHT22;27616;51.420;6.788;2024-03-02T07:48:01;10.50;99.90
41928;DHT22;27616;51.420;6.788;2024-03-02T07:50:29;11.00;99.90
41928;DHT22;27616;51.420;6.788;2024-03-02T07:52:55;11.30;99.90
41928;DHT22;27616;51.420;6.788;2024-03-02T07:55:21;11.50;99.90
41928;DHT22;27616;51.420;6.788;2024-03-02T07:57:49;11.70;99.90
41928;DHT22;27616;51.420;6.788;2024-03-02T08:00:15;11.90;99.90
41928;DHT22;27616;51.420;6.788;2024-03-02T08:02:41;12.00;99.90
41928;DHT22;27616;51.420;6.788;2024-03-02T08:05:08;12.10;99.90
41928;DHT22;27616;51.420;6.788;2024-03-02T08:07:34;11.90;99.90
41928;DHT22;27616;51.420;6.788;2024-03-02T08:10:00;11.60;99.90
41928;DHT22;27616;51.420;6.788;2024-03-02T08:12:25;11.30;99.90
41928;DHT22;27616;51.420;6.788;2024-03-02T08:14:51;11.20;99.90
41928;DHT22;27616;51.420;6.788;2024-03-02T08:17:17;11.10;99.90
41928;DHT22;27616;51.420;6.788;2024-03-02T08:19:43;11.10;99.90
41928;DHT22;27616;51.420;6.788;2024-03-02T08:22:09;11.10;99.90
41928;DHT22;27616;51.420;6.788;2024-03-02T08:24:35;11.00;99.90
41928;DHT22;27616;51.420;6.788;2024-03-02T08:27:01;11.30;99.90
41928;DHT22;27616;51.420;6.788;2024-03-02T08:29:27;11.50;99.90
41928;DHT22;27616;51.420;6.788;2024-03-02T08:31:53;11.80;99.90
41928;DHT22;27616;51.420;6.788;2024-03-02T08:34:19;11.80;99.90
41928;DHT22;27616;51.420;6.788;2024-03-02T08:36:45;11.80;99.90
41928;DHT22;27616;51.420;6.788;2024-03-02T08:39:11;12.00;99.90
41928;DHT22;27616;51.420;6.788;2024-03-02T08:41:47;12.50;99.90
41928;DHT22;27616;51.420;6.788;2024-03-02T08:44:13;12.60;99.90
41928;DHT22;27616;51.420;6.788;2024-03-02T08:46:39;12.70;99.90
41928;DHT22;27616;51.420;6.788;2024-03-02T08:49:06;12.70;99.90
41928;DHT22;27616;51.420;6.788;2024-03-02T08:51:32;12.50;99.90
41928;DHT22;27616;51.420;6.788;2024-03-02T08:53:57;12.40;99.90
41928;DHT22;27616;51.420;6.788;2024-03-02T08:56:24;12.30;99.90
41928;DHT22;27616;51.420;6.788;2024-03-02T08:58:50;12.20;99.90
41928;DHT22;27616;51.420;6.788;2024-03-02T09:01:16;12.20;99.90
41928;DHT22;27616;51.420;6.788;2024-03-02T09:03:42;12.20;99.90
41928;DHT22;27616;51.420;6.788;2024-03-02T09:06:13;12.40;99.90
41928;DHT22;27616;51.420;6.788;2024-03-02T09:08:39;12.70;99.90
41928;DHT22;27616;51.420;6.788;2024-03-02T09:11:07;12.80;99.90
41928;DHT22;27616;51.420;6.788;2024-03-02T09:13:33;13.10;99.90
41928;DHT22;27616;51.420;6.788;2024-03-02T09:15:59;13.10;99.90
41928;DHT22;27616;51.420;6.788;2024-03-02T09:18:25;13.20;99.90
41928;DHT22;27616;51.420;6.788;2024-03-02T09:20:50;13.10;99.90
41928;DHT22;27616;51.420;6.788;2024-03-02T09:23:16;13.30;99.90
41928;DHT22;27616;51.420;6.788;2024-03-02T09:25:41;13.50;99.90
41928;DHT22;27616;51.420;6.788;2024-03-02T09:28:07;13.70;99.90
41928;DHT22;27616;51.420;6.788;2024-03-02T09:30:33;14.00;99.90
41928;DHT22;27616;51.420;6.788;2024-03-02T09:32:58;14.30;99.90
41928;DHT22;27616;51.420;6.788;2024-03-02T09:35:24;14.00;99.90
41928;DHT22;27616;51.420;6.788;2024-03-02T09:37:50;14.10;99.90
41928;DHT22;27616;51.420;6.788;2024-03-02T09:40:16;14.30;99.90
41928;DHT22;27616;51.420;6.788;2024-03-02T09:42:42;14.50;99.90
41928;DHT22;27616;51.420;6.788;2024-03-02T09:45:09;14.70;99.80
41928;DHT22;27616;51.420;6.788;2024-03-02T09:47:35;15.40;99.30
41928;DHT22;27616;51.420;6.788;2024-03-02T09:50:00;15.70;98.50
41928;DHT22;27616;51.420;6.788;2024-03-02T09:52:26;15.60;97.90
41928;DHT22;27616;51.420;6.788;2024-03-02T09:54:52;15.20;98.30
41928;DHT22;27616;51.420;6.788;2024-03-02T09:57:18;14.50;99.50
41928;DHT22;27616;51.420;6.788;2024-03-02T09:59:43;14.40;99.90
41928;DHT22;27616;51.420;6.788;2024-03-02T10:02:10;15.00;99.10
41928;DHT22;27616;51.420;6.788;2024-03-02T10:04:36;15.80;97.50
41928;DHT22;27616;51.420;6.788;2024-03-02T10:07:15;15.70;97.20
41928;DHT22;27616;51.420;6.788;2024-03-02T10:09:43;15.20;98.10
41928;DHT22;27616;51.420;6.788;2024-03-02T10:12:10;14.70;98.80
41928;DHT22;27616;51.420;6.788;2024-03-02T10:14:37;14.30;98.90
41928;DHT22;27616;51.420;6.788;2024-03-02T10:17:04;14.30;99.30
41928;DHT22;27616;51.420;6.788;2024-03-02T10:19:31;15.00;98.60
41928;DHT22;27616;51.420;6.788;2024-03-02T10:22:01;16.10;97.40
41928;DHT22;27616;51.420;6.788;2024-03-02T10:24:37;17.60;94.80
41928;DHT22;27616;51.420;6.788;2024-03-02T10:27:08;18.70;93.10
41928;DHT22;27616;51.420;6.788;2024-03-02T10:29:37;18.40;92.20
41928;DHT22;27616;51.420;6.788;2024-03-02T10:32:03;17.30;93.30
41928;DHT22;27616;51.420;6.788;2024-03-02T10:34:29;17.20;93.70
41928;DHT22;27616;51.420;6.788;2024-03-02T10:36:54;17.80;93.40
41928;DHT22;27616;51.420;6.788;2024-03-02T10:39:21;17.90;92.70
41928;DHT22;27616;51.420;6.788;2024-03-02T10:41:47;17.70;92.90
41928;DHT22;27616;51.420;6.788;2024-03-02T10:44:14;17.70;93.50
41928;DHT22;27616;51.420;6.788;2024-03-02T10:46:41;17.60;93.10
41928;DHT22;27616;51.420;6.788;2024-03-02T10:49:09;18.00;92.60
41928;DHT22;27616;51.420;6.788;2024-03-02T10:51:35;18.50;92.30
41928;DHT22;27616;51.420;6.788;2024-03-02T10:54:02;19.20;91.20
41928;DHT22;27616;51.420;6.788;2024-03-02T10:56:39;19.50;91.00
41928;DHT22;27616;51.420;6.788;2024-03-02T10:59:13;19.50;89.80
41928;DHT22;27616;51.420;6.788;2024-03-02T11:01:43;20.00;90.10
41928;DHT22;27616;51.420;6.788;2024-03-02T11:04:09;19.60;89.00
41928;DHT22;27616;51.420;6.788;2024-03-02T11:06:38;19.70;89.80
41928;DHT22;27616;51.420;6.788;2024-03-02T11:09:07;19.60;89.00
41928;DHT22;27616;51.420;6.788;2024-03-02T11:11:41;19.80;88.20
41928;DHT22;27616;51.420;6.788;2024-03-02T11:14:14;19.30;88.20
41928;DHT22;27616;51.420;6.788;2024-03-02T11:16:40;19.30;88.50
41928;DHT22;27616;51.420;6.788;2024-03-02T11:19:12;19.60;89.50
41928;DHT22;27616;51.420;6.788;2024-03-02T11:21:39;19.60;87.10
41928;DHT22;27616;51.420;6.788;2024-03-02T11:24:28;19.60;87.50
41928;DHT22;27616;51.420;6.788;2024-03-02T11:26:59;19.20;87.90
41928;DHT22;27616;51.420;6.788;2024-03-02T11:32:12;17.60;90.80
41928;DHT22;27616;51.420;6.788;2024-03-02T11:34:41;17.40;92.00
41928;DHT22;27616;51.420;6.788;2024-03-02T11:37:11;17.30;91.60
41928;DHT22;27616;51.420;6.788;2024-03-02T11:39:39;17.30;92.20
41928;DHT22;27616;51.420;6.788;2024-03-02T11:42:07;17.60;91.50
41928;DHT22;27616;51.420;6.788;2024-03-02T11:44:36;18.10;90.60
41928;DHT22;27616;51.420;6.788;2024-03-02T11:47:05;18.50;90.20
41928;DHT22;27616;51.420;6.788;2024-03-02T11:52:09;18.00;90.60
41928;DHT22;27616;51.420;6.788;2024-03-02T11:54:41;17.30;91.20
41928;DHT22;27616;51.420;6.788;2024-03-02T11:57:13;16.80;91.60
41928;DHT22;27616;51.420;6.788;2024-03-02T11:59:39;16.60;92.40
41928;DHT22;27616;51.420;6.788;2024-03-02T12:02:06;17.10;91.90
41928;DHT22;27616;51.420;6.788;2024-03-02T12:04:31;17.70;91.30
41928;DHT22;27616;51.420;6.788;2024-03-02T12:06:59;18.60;90.00
41928;DHT22;27616;51.420;6.788;2024-03-02T12:09:26;19.50;87.90
41928;DHT22;27616;51.420;6.788;2024-03-02T12:12:06;20.00;84.50
41928;DHT22;27616;51.420;6.788;2024-03-02T12:14:32;21.00;82.30
41928;DHT22;27616;51.420;6.788;2024-03-02T12:16:58;20.40;82.00
41928;DHT22;27616;51.420;6.788;2024-03-02T12:19:27;19.50;83.80
41928;DHT22;27616;51.420;6.788;2024-03-02T12:21:56;18.40;86.50
41928;DHT22;27616;51.420;6.788;2024-03-02T12:24:21;17.40;87.70
41928;DHT22;27616;51.420;6.788;2024-03-02T12:26:49;16.50;90.30
41928;DHT22;27616;51.420;6.788;2024-03-02T12:29:15;15.80;91.60
41928;DHT22;27616;51.420;6.788;2024-03-02T12:31:42;15.60;92.30
41928;DHT22;27616;51.420;6.788;2024-03-02T12:34:12;15.70;92.50
41928;DHT22;27616;51.420;6.788;2024-03-02T12:36:39;15.60;92.60
41928;DHT22;27616;51.420;6.788;2024-03-02T12:39:05;15.50;92.80
41928;DHT22;27616;51.420;6.788;2024-03-02T12:41:31;15.50;93.10
41928;DHT22;27616;51.420;6.788;2024-03-02T12:43:56;15.50;93.40
41928;DHT22;27616;51.420;6.788;2024-03-02T12:46:22;15.50;93.60
41928;DHT22;27616;51.420;6.788;2024-03-02T12:48:47;15.50;93.40
41928;DHT22;27616;51.420;6.788;2024-03-02T12:51:13;15.30;93.30
41928;DHT22;27616;51.420;6.788;2024-03-02T12:53:40;15.20;93.60
41928;DHT22;27616;51.420;6.788;2024-03-02T12:56:05;15.10;93.90
41928;DHT22;27616;51.420;6.788;2024-03-02T12:58:41;15.00;94.20
41928;DHT22;27616;51.420;6.788;2024-03-02T13:01:08;15.00;94.50
41928;DHT22;27616;51.420;6.788;2024-03-02T13:03:41;15.00;94.50
41928;DHT22;27616;51.420;6.788;2024-03-02T13:06:07;14.90;94.80
41928;DHT22;27616;51.420;6.788;2024-03-02T13:08:34;14.60;95.40
41928;DHT22;27616;51.420;6.788;2024-03-02T13:11:00;14.40;95.60
41928;DHT22;27616;51.420;6.788;2024-03-02T13:13:26;14.40;96.20
41928;DHT22;27616;51.420;6.788;2024-03-02T13:15:55;14.50;96.30
41928;DHT22;27616;51.420;6.788;2024-03-02T13:18:21;14.60;96.00
41928;DHT22;27616;51.420;6.788;2024-03-02T13:20:47;14.60;95.80
41928;DHT22;27616;51.420;6.788;2024-03-02T13:23:12;14.50;96.20
41928;DHT22;27616;51.420;6.788;2024-03-02T13:25:38;14.50;96.30
41928;DHT22;27616;51.420;6.788;2024-03-02T13:28:04;14.60;96.30
41928;DHT22;27616;51.420;6.788;2024-03-02T13:30:30;14.70;96.20
41928;DHT22;27616;51.420;6.788;2024-03-02T13:32:55;15.00;95.80
41928;DHT22;27616;51.420;6.788;2024-03-02T13:35:21;15.20;95.50
41928;DHT22;27616;51.420;6.788;2024-03-02T13:37:47;15.20;95.40
41928;DHT22;27616;51.420;6.788;2024-03-02T13:40:12;15.10;95.00
41928;DHT22;27616;51.420;6.788;2024-03-02T13:42:43;15.00;95.40
41928;DHT22;27616;51.420;6.788;2024-03-02T13:45:08;14.90;95.60
41928;DHT22;27616;51.420;6.788;2024-03-02T13:47:34;14.90;95.80
41928;DHT22;27616;51.420;6.788;2024-03-02T13:50:00;14.80;95.60
41928;DHT22;27616;51.420;6.788;2024-03-02T13:52:27;14.50;96.00
41928;DHT22;27616;51.420;6.788;2024-03-02T13:54:52;14.40;96.50
41928;DHT22;27616;51.420;6.788;2024-03-02T13:57:19;14.30;96.70
41928;DHT22;27616;51.420;6.788;2024-03-02T13:59:45;14.30;96.60
41928;DHT22;27616;51.420;6.788;2024-03-02T14:02:12;14.40;96.80
41928;DHT22;27616;51.420;6.788;2024-03-02T14:04:38;14.50;96.60
41928;DHT22;27616;51.420;6.788;2024-03-02T14:07:04;14.60;96.50
41928;DHT22;27616;51.420;6.788;2024-03-02T14:09:32;14.60;96.80
41928;DHT22;27616;51.420;6.788;2024-03-02T14:11:58;14.60;96.90
41928;DHT22;27616;51.420;6.788;2024-03-02T14:14:26;14.50;96.60
41928;DHT22;27616;51.420;6.788;2024-03-02T14:16:52;14.50;96.80
41928;DHT22;27616;51.420;6.788;2024-03-02T14:19:18;14.50;96.70
41928;DHT22;27616;51.420;6.788;2024-03-02T14:21:43;14.50;96.90
41928;DHT22;27616;51.420;6.788;2024-03-02T14:24:09;14.50;97.00
41928;DHT22;27616;51.420;6.788;2024-03-02T14:26:36;14.50;96.90
41928;DHT22;27616;51.420;6.788;2024-03-02T14:29:02;14.30;97.20
41928;DHT22;27616;51.420;6.788;2024-03-02T14:31:29;14.40;97.30
41928;DHT22;27616;51.420;6.788;2024-03-02T14:33:55;14.40;97.10
41928;DHT22;27616;51.420;6.788;2024-03-02T14:36:20;14.50;96.90
41928;DHT22;27616;51.420;6.788;2024-03-02T14:38:46;14.40;96.90
41928;DHT22;27616;51.420;6.788;2024-03-02T14:41:12;14.30;97.40
41928;DHT22;27616;51.420;6.788;2024-03-02T14:43:39;14.40;97.20
41928;DHT22;27616;51.420;6.788;2024-03-02T14:46:04;14.40;97.10
41928;DHT22;27616;51.420;6.788;2024-03-02T14:48:31;14.40;97.10
41928;DHT22;27616;51.420;6.788;2024-03-02T14:50:57;14.50;97.20
41928;DHT22;27616;51.420;6.788;2024-03-02T14:53:22;14.50;97.10
41928;DHT22;27616;51.420;6.788;2024-03-02T14:55:49;14.40;97.20
41928;DHT22;27616;51.420;6.788;2024-03-02T14:58:15;14.40;97.20
41928;DHT22;27616;51.420;6.788;2024-03-02T15:00:41;14.30;97.10
41928;DHT22;27616;51.420;6.788;2024-03-02T15:03:07;14.30;97.20
41928;DHT22;27616;51.420;6.788;2024-03-02T15:05:34;14.30;97.20
41928;DHT22;27616;51.420;6.788;2024-03-02T15:08:00;14.30;97.30
41928;DHT22;27616;51.420;6.788;2024-03-02T15:10:28;14.30;97.10
41928;DHT22;27616;51.420;6.788;2024-03-02T15:12:53;14.40;97.10
41928;DHT22;27616;51.420;6.788;2024-03-02T15:15:19;14.40;97.00
41928;DHT22;27616;51.420;6.788;2024-03-02T15:17:45;14.50;97.10
41928;DHT22;27616;51.420;6.788;2024-03-02T15:20:11;14.60;97.00
41928;DHT22;27616;51.420;6.788;2024-03-02T15:22:36;14.60;97.00
41928;DHT22;27616;51.420;6.788;2024-03-02T15:25:02;14.60;97.00
41928;DHT22;27616;51.420;6.788;2024-03-02T15:27:27;14.70;96.80
41928;DHT22;27616;51.420;6.788;2024-03-02T15:29:53;14.70;96.90
41928;DHT22;27616;51.420;6.788;2024-03-02T15:32:20;14.70;97.00
41928;DHT22;27616;51.420;6.788;2024-03-02T15:34:46;14.70;97.00
41928;DHT22;27616;51.420;6.788;2024-03-02T15:37:12;14.80;96.90
41928;DHT22;27616;51.420;6.788;2024-03-02T15:39:37;14.70;97.10
41928;DHT22;27616;51.420;6.788;2024-03-02T15:42:03;14.70;97.10